Impacts METAR Board
IDs:

KGUC - Gunnison Arpt, CO, US

Updated at: 1300 UTC 07 Jul 2020
Potential Impact None Slight Moderate High
Time 07/01Z 07/02Z 07/03Z 07/04Z 07/05Z 07/06Z 07/07Z 07/08Z 07/09Z 07/10Z 07/11Z 07/12Z 07/13Z
Temp79 76 74 71 67 61 60 59 57 56 53 56 57
Dewpt40 36 35 38 38 39 39 38 38 38 40 37 38
Altim30.23 30.23 30.25 30.27 30.28 30.29 30.29 30.29 30.29 30.29 30.31 30.31 30.33
VIS10 10 10 10 10 10 10 10 10 10 10 10 10
CIG-- -- -- -- -- -- -- -- -- -- -- -- --
CoverCLRFEWSCTFEWCLRSCTCLRSCTFEWCLRCLRFEWCLR
FltCatVFRVFRVFRVFRVFRVFRVFRVFRVFRVFRVFRVFRVFR
WX--------------------------
WDir35017014080320350103301020260200
WSpd7 7 7 10 8 8 10 7 8 7 6 9 0
WGst-- -- -- -- -- -- -- -- -- -- -- -- --
Raw hourly METARs
KGUC 070056Z AUTO 35007KT 10SM CLR 26/04 A3023 RMK AO2 SLP152 T02610044
KGUC 070156Z AUTO 17007KT 10SM FEW120 24/02 A3023 RMK AO2 SLP150 T02440022
KGUC 070256Z AUTO 14007KT 120V220 10SM SCT120 23/02 A3025 RMK AO2 SLP147 T02330017 53003
KGUC 070356Z AUTO 08010KT 10SM FEW120 22/03 A3027 RMK AO2 SLP153 T02170033
KGUC 070456Z AUTO 32008KT 10SM CLR 19/03 A3028 RMK AO2 SLP151 T01940033
KGUC 070556Z AUTO 35008KT 10SM SCT120 16/04 A3029 RMK AO2 SLP156 T01610039 10272 20161 403000067 51011
KGUC 070656Z AUTO 01010KT 10SM CLR 16/04 A3029 RMK AO2 SLP150 T01560039
KGUC 070756Z AUTO 33007KT 10SM SCT110 15/03 A3029 RMK AO2 SLP151 T01500033
KGUC 070856Z AUTO 01008KT 10SM FEW120 14/03 A3029 RMK AO2 SLP151 T01390033 50000
KGUC 070956Z AUTO 02007KT 10SM CLR 13/03 A3029 RMK AO2 SLP157 T01330033
KGUC 071056Z AUTO 26006KT 10SM CLR 12/04 A3031 RMK AO2 SLP170 T01170044
KGUC 071156Z AUTO 02009KT 10SM FEW110 13/03 A3031 RMK AO2 SLP164 T01330028 10167 20117 50006
KGUC 071256Z AUTO 00000KT 10SM CLR 14/03 A3033 RMK AO2 SLP173 T01390033



Page loaded:  13:24 UTC  |   06:24 AM Pacific  |   07:24 AM Mountain  |   08:24 AM Central  |   09:24 AM Eastern

 

ADVISORIES

FORECASTS

FORECASTS

OBSERVATIONS

USER TOOLS

ABOUT US